| time (UTC) | temp F | wind direction | speed MPH | gust MPH | rain 1hr in | rain 24hr in | rain mn in | humidity % | barometer mb |
| 20260509124005 | 47 | 178 | 5.0 | 9.0 | 0.05 | 0.23 | 0.10 | 92 | 1009.3 |
| 20260509123507 | 47 | 181 | 4.0 | 8.0 | 0.05 | 0.22 | 0.09 | 92 | 1009.3 |
| 20260509123026 | 47 | 212 | 4.0 | 8.0 | 0.05 | 0.22 | 0.09 | 92 | 1009.3 |
| 20260509122505 | 47 | 181 | 3.0 | 6.0 | 0.05 | 0.22 | 0.09 | 92 | 1009.3 |
| 20260509122008 | 47 | 194 | 4.0 | 7.0 | 0.06 | 0.22 | 0.09 | 92 | 1009.4 |
| 20260509121523 | 46 | 201 | 3.0 | 7.0 | 0.06 | 0.21 | 0.08 | 92 | 1009.4 |
| 20260509121007 | 46 | 176 | 2.0 | 6.0 | 0.06 | 0.21 | 0.08 | 92 | 1009.4 |
| 20260509120504 | 46 | 185 | 3.0 | 6.0 | 0.07 | 0.21 | 0.08 | 92 | 1009.4 |
| 20260509120020 | 46 | 176 | 2.0 | 7.0 | 0.07 | 0.20 | 0.07 | 92 | 1009.5 |
| 20260509115507 | 46 | 181 | 3.0 | 7.0 | 0.07 | 0.20 | 0.07 | 92 | 1009.5 |
| 20260509115010 | 46 | 178 | 3.0 | 6.0 | 0.06 | 0.19 | 0.06 | 92 | 1009.6 |
| 20260509114516 | 46 | 210 | 3.0 | 6.0 | 0.06 | 0.19 | 0.06 | 92 | 1009.6 |
| 20260509114009 | 46 | 212 | 3.0 | 7.0 | 0.05 | 0.18 | 0.05 | 92 | 1009.6 |
| 20260509113508 | 46 | 169 | 4.0 | 7.0 | 0.04 | 0.17 | 0.04 | 92 | 1009.5 |
| 20260509113013 | 46 | 158 | 3.0 | 6.0 | 0.04 | 0.17 | 0.04 | 91 | 1009.6 |
| 20260509112506 | 46 | 179 | 3.0 | 6.0 | 0.04 | 0.17 | 0.04 | 91 | 1009.5 |
| 20260509112009 | 46 | 153 | 3.0 | 7.0 | 0.03 | 0.16 | 0.03 | 91 | 1009.5 |
| 20260509111523 | 46 | 172 | 4.0 | 7.0 | 0.02 | 0.15 | 0.02 | 90 | 1009.5 |
| 20260509111005 | 46 | 174 | 4.0 | 8.0 | 0.02 | 0.15 | 0.02 | 90 | 1009.5 |
| 20260509110510 | 46 | 205 | 4.0 | 8.0 | 0.01 | 0.14 | 0.01 | 90 | 1009.4 |
| 20260509110025 | 46 | 176 | 4.0 | 10.0 | 0.00 | 0.13 | 0.00 | 90 | 1009.4 |
| 20260509105503 | 46 | 186 | 5.0 | 10.0 | 0.00 | 0.13 | 0.00 | 90 | 1009.4 |
| 20260509105007 | 46 | 158 | 5.0 | 9.0 | 0.00 | 0.13 | 0.00 | 90 | 1009.3 |
| 20260509104524 | 45 | 185 | 5.0 | 7.0 | 0.00 | 0.13 | 0.00 | 89 | 1009.3 |
| 20260509104007 | 45 | 174 | 4.0 | 7.0 | 0.00 | 0.13 | 0.00 | 89 | 1009.2 |
| 20260509103504 | 45 | 197 | 4.0 | 5.0 | 0.00 | 0.13 | 0.00 | 89 | 1009.2 |
| 20260509103021 | 45 | 179 | 3.0 | 5.0 | 0.00 | 0.13 | 0.00 | 88 | 1009.2 |
| 20260509102509 | 45 | 186 | 2.0 | 5.0 | 0.00 | 0.13 | 0.00 | 88 | 1009.1 |
| 20260509102003 | 45 | 150 | 3.0 | 6.0 | 0.00 | 0.13 | 0.00 | 88 | 1009.1 |
| 20260509101518 | 45 | 144 | 3.0 | 6.0 | 0.00 | 0.13 | 0.00 | 87 | 1009.2 |
| 20260509101009 | 45 | 182 | 3.0 | 6.0 | 0.00 | 0.13 | 0.00 | 87 | 1009.2 |
| 20260509100508 | 45 | 195 | 3.0 | 6.0 | 0.00 | 0.13 | 0.00 | 87 | 1009.1 |
| 20260509100015 | 45 | 182 | 3.0 | 7.0 | 0.00 | 0.13 | 0.00 | 86 | 1009.1 |
| 20260509095508 | 45 | 187 | 3.0 | 7.0 | 0.00 | 0.13 | 0.00 | 86 | 1009.1 |
| 20260509095009 | 45 | 179 | 4.0 | 6.0 | 0.00 | 0.13 | 0.00 | 85 | 1009.1 |
| 20260509094525 | 45 | 172 | 2.0 | 4.0 | 0.00 | 0.13 | 0.00 | 85 | 1009.1 |
| 20260509094007 | 45 | 174 | 2.0 | 8.0 | 0.00 | 0.13 | 0.00 | 85 | 1009.0 |
| 20260509093508 | 45 | 191 | 4.0 | 8.0 | 0.00 | 0.13 | 0.00 | 85 | 1009.2 |
| 20260509093026 | 45 | 167 | 2.0 | 5.0 | 0.00 | 0.13 | 0.00 | 85 | 1009.1 |
| 20260509092504 | 45 | 122 | 2.0 | 6.0 | 0.00 | 0.13 | 0.00 | 84 | 1009.1 |
| 20260509092007 | 45 | 179 | 3.0 | 6.0 | 0.00 | 0.13 | 0.00 | 84 | 1009.1 |
| 20260509091533 | 45 | 181 | 3.0 | 6.0 | 0.00 | 0.13 | 0.00 | 84 | 1009.1 |
| 20260509091006 | 45 | 178 | 3.0 | 6.0 | 0.00 | 0.13 | 0.00 | 84 | 1009.1 |
| 20260509090505 | 45 | 193 | 3.0 | 7.0 | 0.00 | 0.13 | 0.00 | 83 | 1009.1 |
| 20260509090024 | 45 | 176 | 4.0 | 7.0 | 0.00 | 0.13 | 0.00 | 83 | 1009.1 |
| 20260509085510 | 45 | 169 | 3.0 | 7.0 | 0.00 | 0.13 | 0.00 | 83 | 1009.1 |
| 20260509085005 | 45 | 180 | 3.0 | 7.0 | 0.00 | 0.13 | 0.00 | 83 | 1009.1 |
| 20260509084528 | 45 | 200 | 4.0 | 6.0 | 0.00 | 0.13 | 0.00 | 82 | 1009.3 |
| 20260509084009 | 45 | 176 | 3.0 | 6.0 | 0.00 | 0.13 | 0.00 | 81 | 1009.4 |
| 20260509083509 | 45 | 185 | 3.0 | 4.0 | 0.00 | 0.13 | 0.00 | 81 | 1009.4 |
| 20260509083019 | 45 | 198 | 3.0 | 4.0 | 0.00 | 0.13 | 0.00 | 80 | 1009.5 |
| 20260509082507 | 45 | 198 | 2.0 | 4.0 | 0.00 | 0.13 | 0.00 | 79 | 1009.3 |
| 20260509082012 | 45 | 195 | 2.0 | 4.0 | 0.00 | 0.13 | 0.00 | 79 | 1009.3 |
| 20260509081515 | 45 | 184 | 2.0 | 4.0 | 0.00 | 0.13 | 0.00 | 78 | 1009.3 |
| 20260509081007 | 45 | 181 | 2.0 | 4.0 | 0.00 | 0.13 | 0.00 | 78 | 1009.3 |
| 20260509080510 | 45 | 154 | 2.0 | 5.0 | 0.00 | 0.13 | 0.00 | 77 | 1009.5 |
| 20260509080040 | 45 | 172 | 3.0 | 5.0 | 0.00 | 0.13 | 0.00 | 76 | 1009.7 |
| 20260509075507 | 45 | 183 | 3.0 | 6.0 | 0.00 | 0.13 | 0.00 | 76 | 1009.6 |
| 20260509075015 | 45 | 171 | 3.0 | 7.0 | 0.00 | 0.13 | 0.00 | 76 | 1009.7 |
| 20260509074527 | 45 | 191 | 4.0 | 7.0 | 0.00 | 0.13 | 0.00 | 75 | 1009.7 |
| 20260509074010 | 44 | 205 | 3.0 | 5.0 | 0.00 | 0.13 | 0.00 | 74 | 1009.7 |
| 20260509073508 | 44 | 188 | 4.0 | 6.0 | 0.00 | 0.13 | 0.00 | 73 | 1009.7 |
| 20260509073046 | 44 | 186 | 3.0 | 7.0 | 0.00 | 0.13 | 0.00 | 73 | 1009.7 |
| 20260509072508 | 44 | 195 | 3.0 | 7.0 | 0.00 | 0.13 | 0.00 | 73 | 1009.8 |
| 20260509072009 | 44 | 200 | 3.0 | 6.0 | 0.00 | 0.13 | 0.00 | 72 | 1009.8 |
| 20260509071524 | 44 | 190 | 4.0 | 6.0 | 0.00 | 0.13 | 0.00 | 71 | 1009.9 |
| 20260509071007 | 44 | 205 | 4.0 | 6.0 | 0.00 | 0.13 | 0.00 | 70 | 1010.0 |
| 20260509070512 | 44 | 186 | 4.0 | 6.0 | 0.00 | 0.13 | 0.00 | 70 | 1009.9 |
| 20260509070004 | 44 | 174 | 3.0 | 5.0 | 0.00 | 0.13 | 0.00 | 71 | 1009.8 |
| 20260509065507 | 44 | 173 | 4.0 | 5.0 | 0.00 | 0.13 | 0.00 | 70 | 1010.0 |
| 20260509065003 | 44 | 191 | 3.0 | 5.0 | 0.00 | 0.13 | 0.00 | 70 | 1010.0 |
| 20260509064519 | 44 | 191 | 2.0 | 4.0 | 0.00 | 0.13 | 0.00 | 69 | 1010.0 |
| 20260509064003 | 45 | 200 | 2.0 | 6.0 | 0.00 | 0.13 | 0.00 | 69 | 1010.1 |
| 20260509063504 | 45 | 190 | 2.0 | 6.0 | 0.00 | 0.13 | 0.00 | 68 | 1010.1 |
| 20260509063016 | 45 | 198 | 4.0 | 7.0 | 0.00 | 0.13 | 0.00 | 67 | 1010.3 |
| 20260509062510 | 44 | 207 | 4.0 | 7.0 | 0.00 | 0.13 | 0.00 | 67 | 1010.3 |
| 20260509062006 | 45 | 191 | 4.0 | 7.0 | 0.00 | 0.13 | 0.00 | 66 | 1010.3 |
| 20260509061511 | 45 | 195 | 4.0 | 6.0 | 0.00 | 0.13 | 0.00 | 65 | 1010.3 |
| 20260509061005 | 45 | 179 | 4.0 | 5.0 | 0.00 | 0.13 | 0.00 | 63 | 1010.4 |
| 20260509060508 | 46 | 167 | 2.0 | 5.0 | 0.00 | 0.13 | 0.00 | 62 | 1010.4 |
| 20260509060015 | 46 | 177 | 2.0 | 4.0 | 0.00 | 0.13 | 0.00 | 60 | 1010.6 |
| 20260509055508 | 46 | 194 | 2.0 | 4.0 | 0.00 | 0.13 | 0.00 | 60 | 1010.6 |
| 20260509055007 | 46 | 188 | 2.0 | 4.0 | 0.00 | 0.13 | 0.00 | 61 | 1010.7 |
| 20260509054505 | 46 | 198 | 3.0 | 4.0 | 0.00 | 0.13 | 0.00 | 60 | 1010.8 |
| 20260509054005 | 46 | 195 | 2.0 | 4.0 | 0.00 | 0.13 | 0.00 | 59 | 1010.8 |
| 20260509053504 | 45 | 195 | 3.0 | 4.0 | 0.00 | 0.13 | 0.00 | 59 | 1010.8 |
| 20260509053011 | 45 | 186 | 2.0 | 3.0 | 0.00 | 0.13 | 0.00 | 59 | 1010.9 |
| 20260509052504 | 45 | 187 | 1.0 | 3.0 | 0.00 | 0.13 | 0.00 | 59 | 1010.8 |
| 20260509052005 | 45 | 187 | 1.0 | 3.0 | 0.00 | 0.13 | 0.00 | 59 | 1010.9 |
| 20260509051522 | 45 | 166 | 2.0 | 2.0 | 0.00 | 0.13 | 0.00 | 60 | 1010.9 |
| 20260509051004 | 45 | 148 | 1.0 | 2.0 | 0.00 | 0.13 | 0.00 | 60 | 1010.8 |
| 20260509050507 | 45 | 148 | 1.0 | 2.0 | 0.00 | 0.13 | 0.00 | 60 | 1010.9 |
| 20260509050029 | 45 | 143 | 0.0 | 1.0 | 0.00 | 0.13 | 0.00 | 60 | 1010.9 |
| 20260509045503 | 45 | 143 | 0.0 | 0.0 | 0.00 | 0.13 | 0.00 | 60 | 1010.9 |
| 20260509045005 | 45 | 143 | 0.0 | 2.0 | 0.00 | 0.13 | 0.00 | 60 | 1010.9 |
| 20260509044517 | 45 | 143 | 0.0 | 3.0 | 0.00 | 0.13 | 0.00 | 59 | 1011.0 |
| 20260509044005 | 45 | 140 | 1.0 | 5.0 | 0.00 | 0.13 | 0.00 | 59 | 1011.0 |
| 20260509043504 | 46 | 131 | 0.0 | 5.0 | 0.00 | 0.13 | 0.00 | 58 | 1011.1 |
| 20260509043029 | 46 | 127 | 0.0 | 1.0 | 0.00 | 0.13 | 0.00 | 58 | 1011.1 |
| 20260509042507 | 46 | 127 | 0.0 | 1.0 | 0.00 | 0.13 | 0.00 | 58 | 1011.1 |
| 20260509042012 | 46 | 127 | 1.0 | 2.0 | 0.00 | 0.13 | 0.00 | 57 | 1011.0 |
| 20260509041511 | 46 | 127 | 1.0 | 2.0 | 0.00 | 0.13 | 0.00 | 58 | 1010.9 |
| 20260509041006 | 46 | 127 | 0.0 | 2.0 | 0.00 | 0.13 | 0.00 | 58 | 1011.1 |
| 20260509040507 | 46 | 127 | 0.0 | 2.0 | 0.00 | 0.13 | 0.00 | 58 | 1011.2 |
| 20260509040008 | 46 | 127 | 1.0 | 2.0 | 0.00 | 0.13 | 0.00 | 58 | 1011.2 |
| 20260509035506 | 46 | 197 | 0.0 | 2.0 | 0.00 | 0.13 | 0.13 | 58 | 1011.3 |
| 20260509035005 | 46 | 197 | 1.0 | 2.0 | 0.00 | 0.13 | 0.13 | 58 | 1011.3 |
| 20260509034525 | 46 | 197 | 1.0 | 2.0 | 0.00 | 0.13 | 0.13 | 58 | 1011.3 |
| 20260509034004 | 46 | 197 | 1.0 | 2.0 | 0.00 | 0.13 | 0.13 | 59 | 1011.2 |
| 20260509033505 | 46 | 197 | 1.0 | 2.0 | 0.00 | 0.13 | 0.13 | 58 | 1011.2 |
| 20260509033023 | 46 | 170 | 1.0 | 2.0 | 0.00 | 0.13 | 0.13 | 58 | 1011.2 |
| 20260509032502 | 46 | 116 | 0.0 | 2.0 | 0.00 | 0.13 | 0.13 | 58 | 1011.1 |
| 20260509032005 | 46 | 94 | 0.0 | 2.0 | 0.00 | 0.13 | 0.13 | 58 | 1011.1 |
| 20260509031520 | 46 | 105 | 0.0 | 2.0 | 0.00 | 0.13 | 0.13 | 58 | 1011.2 |
| 20260509031007 | 46 | 98 | 0.0 | 1.0 | 0.00 | 0.13 | 0.13 | 58 | 1011.2 |
| 20260509030505 | 46 | 98 | 0.0 | 1.0 | 0.00 | 0.13 | 0.13 | 58 | 1011.2 |
| 20260509030014 | 46 | 98 | 0.0 | 0.0 | 0.00 | 0.13 | 0.13 | 59 | 1011.2 |
| 20260509025507 | 47 | 98 | 0.0 | 2.0 | 0.00 | 0.13 | 0.13 | 58 | 1011.3 |
| 20260509025006 | 47 | 98 | 0.0 | 2.0 | 0.00 | 0.13 | 0.13 | 56 | 1011.3 |
| 20260509024512 | 47 | 87 | 1.0 | 2.0 | 0.00 | 0.13 | 0.13 | 57 | 1011.4 |
| 20260509024010 | 47 | 73 | 0.0 | 2.0 | 0.00 | 0.13 | 0.13 | 57 | 1011.5 |
| 20260509023510 | 47 | 18 | 0.0 | 2.0 | 0.00 | 0.13 | 0.13 | 56 | 1011.5 |
| 20260509023017 | 47 | 352 | 0.0 | 0.0 | 0.00 | 0.13 | 0.13 | 55 | 1011.5 |
| 20260509022506 | 47 | 352 | 0.0 | 1.0 | 0.00 | 0.13 | 0.13 | 56 | 1011.6 |
| 20260509022012 | 47 | 352 | 0.0 | 1.0 | 0.00 | 0.13 | 0.13 | 56 | 1011.6 |
| 20260509021528 | 47 | 352 | 0.0 | 0.0 | 0.00 | 0.13 | 0.13 | 56 | 1011.6 |
| 20260509021007 | 47 | 352 | 0.0 | 0.0 | 0.00 | 0.13 | 0.13 | 56 | 1011.5 |
| 20260509020510 | 47 | 352 | 0.0 | 2.0 | 0.00 | 0.13 | 0.13 | 56 | 1011.5 |
| 20260509020025 | 47 | 352 | 0.0 | 2.0 | 0.00 | 0.13 | 0.13 | 57 | 1011.5 |
| 20260509015504 | 46 | 352 | 0.0 | 1.0 | 0.00 | 0.13 | 0.13 | 57 | 1011.5 |
| 20260509015004 | 46 | 352 | 0.0 | 1.0 | 0.00 | 0.13 | 0.13 | 58 | 1011.5 |
| 20260509014523 | 46 | 352 | 0.0 | 1.0 | 0.00 | 0.13 | 0.13 | 57 | 1011.5 |
| 20260509014008 | 46 | 352 | 0.0 | 2.0 | 0.00 | 0.13 | 0.13 | 56 | 1011.6 |
| 20260509013509 | 46 | 352 | 0.0 | 2.0 | 0.00 | 0.13 | 0.13 | 56 | 1011.5 |
| 20260509013039 | 46 | 342 | 0.0 | 2.0 | 0.00 | 0.13 | 0.13 | 56 | 1011.4 |
| 20260509012510 | 46 | 342 | 0.0 | 2.0 | 0.00 | 0.13 | 0.13 | 56 | 1011.4 |
| 20260509012004 | 46 | 342 | 1.0 | 1.0 | 0.00 | 0.13 | 0.13 | 57 | 1011.3 |
| 20260509011514 | 46 | 342 | 1.0 | 1.0 | 0.00 | 0.13 | 0.13 | 56 | 1011.2 |
| 20260509011006 | 46 | 342 | 1.0 | 1.0 | 0.00 | 0.13 | 0.13 | 57 | 1011.2 |
| 20260509010515 | 46 | 342 | 1.0 | 1.0 | 0.00 | 0.13 | 0.13 | 57 | 1011.2 |
| 20260509010019 | 46 | 342 | 1.0 | 1.0 | 0.00 | 0.13 | 0.13 | 57 | 1011.0 |
| 20260509005509 | 46 | 342 | 1.0 | 2.0 | 0.00 | 0.13 | 0.13 | 56 | 1011.0 |
| 20260509005011 | 46 | 342 | 0.0 | 2.0 | 0.00 | 0.13 | 0.13 | 57 | 1010.8 |
| 20260509004522 | 46 | 342 | 1.0 | 2.0 | 0.00 | 0.13 | 0.13 | 60 | 1010.7 |
| 20260509004007 | 47 | 342 | 1.0 | 2.0 | 0.00 | 0.13 | 0.13 | 58 | 1010.6 |
| 20260509003511 | 47 | 342 | 2.0 | 2.0 | 0.00 | 0.13 | 0.13 | 57 | 1010.5 |
| 20260509003036 | 47 | 342 | 1.0 | 2.0 | 0.00 | 0.13 | 0.13 | 56 | 1010.5 |
| 20260509002505 | 47 | 342 | 1.0 | 2.0 | 0.00 | 0.13 | 0.13 | 55 | 1010.6 |
| 20260509002008 | 48 | 342 | 2.0 | 2.0 | 0.00 | 0.13 | 0.13 | 55 | 1010.6 |
| 20260509001523 | 48 | 342 | 1.0 | 2.0 | 0.00 | 0.13 | 0.13 | 56 | 1010.6 |
| 20260509001008 | 48 | 342 | 1.0 | 2.0 | 0.00 | 0.13 | 0.13 | 53 | 1010.5 |
| 20260509000506 | 49 | 342 | 1.0 | 2.0 | 0.00 | 0.13 | 0.13 | 54 | 1010.4 |
| 20260509000021 | 49 | 353 | 2.0 | 2.0 | 0.00 | 0.13 | 0.13 | 54 | 1010.4 |
| 20260508235508 | 49 | 359 | 2.0 | 2.0 | 0.00 | 0.13 | 0.13 | 55 | 1010.4 |
| 20260508235004 | 50 | 4 | 1.0 | 2.0 | 0.00 | 0.13 | 0.13 | 51 | 1010.4 |
| 20260508234519 | 50 | 4 | 1.0 | 2.0 | 0.00 | 0.13 | 0.13 | 54 | 1010.3 |
| 20260508234008 | 51 | 20 | 0.0 | 2.0 | 0.00 | 0.13 | 0.13 | 49 | 1010.3 |
| 20260508233507 | 52 | 20 | 1.0 | 1.0 | 0.00 | 0.13 | 0.13 | 49 | 1010.2 |
| 20260508233016 | 53 | 20 | 1.0 | 2.0 | 0.00 | 0.13 | 0.13 | 47 | 1010.1 |
| 20260508232507 | 53 | 20 | 0.0 | 3.0 | 0.00 | 0.13 | 0.13 | 47 | 1010.1 |
| 20260508232013 | 53 | 27 | 0.0 | 3.0 | 0.00 | 0.13 | 0.13 | 46 | 1010.1 |
| 20260508231512 | 53 | 27 | 1.0 | 3.0 | 0.00 | 0.13 | 0.13 | 46 | 1010.1 |
| 20260508231008 | 53 | 341 | 1.0 | 4.0 | 0.00 | 0.13 | 0.13 | 45 | 1010.2 |
| 20260508230507 | 53 | 336 | 2.0 | 5.0 | 0.00 | 0.13 | 0.13 | 45 | 1010.1 |
| 20260508230042 | 53 | 359 | 3.0 | 5.0 | 0.00 | 0.13 | 0.13 | 45 | 1010.2 |
| 20260508225503 | 53 | 345 | 3.0 | 5.0 | 0.00 | 0.13 | 0.13 | 46 | 1010.2 |
| 20260508225009 | 53 | 360 | 3.0 | 6.0 | 0.00 | 0.13 | 0.13 | 46 | 1010.2 |
| 20260508224527 | 53 | 329 | 4.0 | 7.0 | 0.00 | 0.13 | 0.13 | 45 | 1010.3 |
| 20260508224004 | 53 | 346 | 3.0 | 7.0 | 0.00 | 0.13 | 0.13 | 45 | 1010.3 |
| 20260508223512 | 54 | 347 | 4.0 | 7.0 | 0.00 | 0.13 | 0.13 | 44 | 1010.3 |
| 20260508223026 | 54 | 18 | 3.0 | 7.0 | 0.00 | 0.13 | 0.13 | 45 | 1010.3 |
| 20260508222509 | 54 | 360 | 2.0 | 6.0 | 0.00 | 0.13 | 0.13 | 44 | 1010.2 |
| 20260508222004 | 55 | 344 | 2.0 | 6.0 | 0.00 | 0.13 | 0.13 | 45 | 1010.2 |
| 20260508221524 | 55 | 1 | 2.0 | 8.0 | 0.00 | 0.13 | 0.13 | 45 | 1010.2 |
| 20260508221011 | 54 | 13 | 1.0 | 8.0 | 0.00 | 0.13 | 0.13 | 46 | 1010.1 |
| 20260508220503 | 55 | 28 | 3.0 | 8.0 | 0.00 | 0.13 | 0.13 | 45 | 1010.1 |
| 20260508220021 | 55 | 360 | 2.0 | 7.0 | 0.00 | 0.13 | 0.13 | 45 | 1010.2 |
| 20260508215511 | 55 | 357 | 2.0 | 7.0 | 0.00 | 0.13 | 0.13 | 47 | 1010.2 |
| 20260508215012 | 54 | 8 | 1.0 | 6.0 | 0.00 | 0.13 | 0.13 | 47 | 1010.3 |
| 20260508214518 | 54 | 334 | 3.0 | 6.0 | 0.00 | 0.13 | 0.13 | 47 | 1010.3 |
| 20260508214009 | 54 | 15 | 2.0 | 6.0 | 0.00 | 0.13 | 0.13 | 49 | 1010.3 |
| 20260508213509 | 53 | 15 | 2.0 | 5.0 | 0.00 | 0.13 | 0.13 | 50 | 1010.3 |
| 20260508213013 | 52 | 356 | 3.0 | 5.0 | 0.00 | 0.13 | 0.13 | 51 | 1010.3 |
| 20260508212508 | 52 | 18 | 2.0 | 5.0 | 0.00 | 0.13 | 0.13 | 51 | 1010.4 |
| 20260508212014 | 52 | 18 | 2.0 | 6.0 | 0.00 | 0.13 | 0.13 | 50 | 1010.3 |
| 20260508211532 | 52 | 44 | 2.0 | 8.0 | 0.00 | 0.13 | 0.13 | 50 | 1010.3 |
| 20260508211008 | 53 | 17 | 3.0 | 8.0 | 0.00 | 0.13 | 0.13 | 48 | 1010.3 |
| 20260508210508 | 54 | 1 | 3.0 | 8.0 | 0.00 | 0.13 | 0.13 | 49 | 1010.3 |
| 20260508210027 | 54 | 20 | 3.0 | 8.0 | 0.00 | 0.13 | 0.13 | 49 | 1010.4 |
| 20260508205503 | 52 | 13 | 3.0 | 8.0 | 0.00 | 0.13 | 0.13 | 52 | 1010.3 |
| 20260508205006 | 52 | 5 | 3.0 | 8.0 | 0.00 | 0.13 | 0.13 | 52 | 1010.5 |
| 20260508204524 | 51 | 14 | 3.0 | 9.0 | 0.00 | 0.13 | 0.13 | 53 | 1010.4 |
| 20260508204011 | 51 | 360 | 2.0 | 9.0 | 0.00 | 0.13 | 0.13 | 54 | 1010.4 |
| 20260508203511 | 51 | 47 | 2.0 | 10.0 | 0.00 | 0.13 | 0.13 | 52 | 1010.5 |
| 20260508203022 | 52 | 345 | 4.0 | 10.0 | 0.00 | 0.13 | 0.13 | 51 | 1010.5 |
| 20260508202515 | 52 | 11 | 4.0 | 10.0 | 0.00 | 0.13 | 0.13 | 51 | 1010.5 |
| 20260508202011 | 52 | 329 | 3.0 | 10.0 | 0.00 | 0.13 | 0.13 | 52 | 1010.6 |
| 20260508201522 | 53 | 328 | 5.0 | 10.0 | 0.00 | 0.13 | 0.13 | 50 | 1010.7 |
| 20260508201007 | 53 | 326 | 4.0 | 10.0 | 0.00 | 0.13 | 0.13 | 50 | 1010.7 |
| 20260508200514 | 53 | 346 | 3.0 | 8.0 | 0.00 | 0.13 | 0.13 | 52 | 1010.7 |
| 20260508200017 | 52 | 352 | 3.0 | 8.0 | 0.00 | 0.13 | 0.13 | 53 | 1010.8 |
| 20260508195505 | 52 | 333 | 4.0 | 8.0 | 0.00 | 0.13 | 0.13 | 54 | 1010.9 |
| 20260508195015 | 52 | 356 | 4.0 | 7.0 | 0.00 | 0.13 | 0.13 | 54 | 1011.1 |
| 20260508194527 | 52 | 349 | 3.0 | 11.0 | 0.00 | 0.13 | 0.13 | 54 | 1011.1 |
| 20260508194008 | 53 | 331 | 4.0 | 11.0 | 0.00 | 0.13 | 0.13 | 53 | 1011.1 |
| 20260508193511 | 53 | 33 | 3.0 | 8.0 | 0.00 | 0.13 | 0.13 | 50 | 1011.2 |
| 20260508193030 | 52 | 210 | 3.0 | 8.0 | 0.00 | 0.13 | 0.13 | 51 | 1011.3 |
| 20260508192506 | 51 | 324 | 5.0 | 11.0 | 0.00 | 0.13 | 0.13 | 51 | 1011.3 |
| 20260508192010 | 51 | 309 | 4.0 | 13.0 | 0.00 | 0.13 | 0.13 | 52 | 1011.4 |
| 20260508191530 | 51 | 342 | 8.0 | 13.0 | 0.00 | 0.13 | 0.13 | 52 | 1011.4 |
| 20260508191009 | 51 | 345 | 4.0 | 10.0 | 0.00 | 0.13 | 0.13 | 53 | 1011.4 |
| 20260508190507 | 51 | 250 | 5.0 | 8.0 | 0.00 | 0.13 | 0.13 | 55 | 1011.5 |
| 20260508190023 | 50 | 319 | 3.0 | 16.0 | 0.00 | 0.13 | 0.13 | 55 | 1011.4 |
| 20260508190008 | 50 | 325 | 3.0 | 16.0 | 0.00 | 0.13 | 0.13 | 55 | 1011.4 |
| 20260508185504 | 50 | 328 | 10.0 | 16.0 | 0.00 | 0.13 | 0.13 | 54 | 1011.4 |
| 20260508185007 | 51 | 349 | 2.0 | 9.0 | 0.00 | 0.13 | 0.13 | 54 | 1011.4 |
| 20260508184504 | 51 | 55 | 3.0 | 9.0 | 0.00 | 0.13 | 0.13 | 59 | 1011.5 |
| 20260508184004 | 51 | 24 | 2.0 | 4.0 | 0.00 | 0.13 | 0.13 | 62 | 1011.6 |
| 20260508183504 | 52 | 359 | 2.0 | 6.0 | 0.00 | 0.13 | 0.13 | 60 | 1011.6 |
| 20260508183047 | 51 | 193 | 1.0 | 6.0 | 0.00 | 0.13 | 0.13 | 61 | 1011.7 |
| 20260508182504 | 50 | 85 | 1.0 | 5.0 | 0.00 | 0.13 | 0.13 | 67 | 1011.8 |
| 20260508182003 | 48 | 85 | 2.0 | 4.0 | 0.00 | 0.13 | 0.13 | 69 | 1011.9 |
| 20260508181543 | 47 | 34 | 2.0 | 6.0 | 0.00 | 0.13 | 0.13 | 69 | 1012.0 |
| 20260508181003 | 47 | 10 | 2.0 | 6.0 | 0.00 | 0.13 | 0.13 | 69 | 1012.3 |
| 20260508180503 | 47 | 47 | 2.0 | 6.0 | 0.00 | 0.13 | 0.13 | 72 | 1012.3 |
| 20260508180016 | 46 | 331 | 2.0 | 4.0 | 0.00 | 0.13 | 0.13 | 74 | 1012.3 |
| 20260508175508 | 45 | 356 | 2.0 | 5.0 | 0.00 | 0.13 | 0.13 | 74 | 1012.5 |
| 20260508175004 | 45 | 344 | 3.0 | 7.0 | 0.00 | 0.13 | 0.13 | 74 | 1012.4 |
| 20260508174516 | 46 | 11 | 4.0 | 7.0 | 0.00 | 0.13 | 0.13 | 73 | 1012.3 |
| 20260508174005 | 47 | 326 | 4.0 | 7.0 | 0.00 | 0.13 | 0.13 | 71 | 1012.4 |
| 20260508173504 | 49 | 37 | 2.0 | 5.0 | 0.00 | 0.13 | 0.13 | 69 | 1012.3 |
| 20260508173006 | 49 | 311 | 1.0 | 5.0 | 0.00 | 0.13 | 0.13 | 72 | 1012.4 |
| 20260508172510 | 48 | 90 | 1.0 | 5.0 | 0.00 | 0.13 | 0.13 | 74 | 1012.4 |
| 20260508172009 | 47 | 329 | 2.0 | 5.0 | 0.00 | 0.13 | 0.13 | 72 | 1012.4 |
| 20260508171504 | 47 | 125 | 3.0 | 5.0 | 0.00 | 0.13 | 0.13 | 73 | 1012.3 |
| 20260508171004 | 47 | 167 | 3.0 | 5.0 | 0.00 | 0.13 | 0.13 | 74 | 1012.3 |
| 20260508170507 | 46 | 127 | 3.0 | 6.0 | 0.00 | 0.13 | 0.13 | 71 | 1012.5 |
| 20260508170009 | 45 | 68 | 2.0 | 6.0 | 0.00 | 0.13 | 0.13 | 72 | 1012.6 |
| 20260508165503 | 45 | 147 | 1.0 | 5.0 | 0.00 | 0.13 | 0.13 | 74 | 1012.7 |
| 20260508165005 | 45 | 71 | 1.0 | 5.0 | 0.00 | 0.13 | 0.13 | 74 | 1012.7 |
| 20260508164522 | 46 | 97 | 2.0 | 4.0 | 0.00 | 0.13 | 0.13 | 74 | 1012.6 |
| 20260508164004 | 47 | 1 | 1.0 | 4.0 | 0.00 | 0.13 | 0.13 | 75 | 1012.5 |
| 20260508163504 | 47 | 70 | 2.0 | 4.0 | 0.00 | 0.13 | 0.13 | 77 | 1012.6 |
| 20260508163016 | 46 | 43 | 2.0 | 4.0 | 0.00 | 0.13 | 0.13 | 76 | 1012.6 |
| 20260508162500 | 46 | 84 | 1.0 | 3.0 | 0.00 | 0.13 | 0.13 | 77 | 1012.5 |
| 20260508162004 | 44 | 285 | 0.0 | 5.0 | 0.00 | 0.13 | 0.13 | 74 | 1012.5 |
| 20260508161515 | 44 | 254 | 2.0 | 5.0 | 0.00 | 0.13 | 0.13 | 75 | 1012.6 |
| 20260508161008 | 44 | 66 | 1.0 | 3.0 | 0.00 | 0.13 | 0.13 | 76 | 1012.7 |
| 20260508160503 | 43 | 354 | 2.0 | 4.0 | 0.00 | 0.13 | 0.13 | 79 | 1012.8 |
| 20260508160015 | 43 | 200 | 1.0 | 4.0 | 0.00 | 0.13 | 0.13 | 80 | 1012.8 |
| 20260508155507 | 42 | 320 | 1.0 | 3.0 | 0.00 | 0.13 | 0.13 | 78 | 1012.8 |
| 20260508155010 | 43 | 340 | 0.0 | 2.0 | 0.00 | 0.13 | 0.13 | 80 | 1012.7 |
| 20260508154510 | 42 | 117 | 0.0 | 2.0 | 0.00 | 0.13 | 0.13 | 82 | 1012.7 |
| 20260508154003 | 41 | 286 | 0.0 | 2.0 | 0.01 | 0.13 | 0.13 | 83 | 1012.7 |
| 20260508153507 | 41 | 269 | 0.0 | 3.0 | 0.01 | 0.13 | 0.13 | 82 | 1012.9 |
| 20260508153004 | 40 | 4 | 1.0 | 3.0 | 0.01 | 0.13 | 0.13 | 83 | 1012.8 |
| 20260508152504 | 40 | 266 | 1.0 | 3.0 | 0.01 | 0.13 | 0.13 | 83 | 1012.8 |
| 20260508152010 | 40 | 360 | 1.0 | 3.0 | 0.01 | 0.13 | 0.13 | 86 | 1012.8 |
| 20260508151525 | 39 | 314 | 1.0 | 3.0 | 0.01 | 0.13 | 0.13 | 86 | 1012.8 |
| 20260508151007 | 39 | 330 | 1.0 | 4.0 | 0.01 | 0.13 | 0.13 | 87 | 1012.8 |
| 20260508150504 | 39 | 307 | 1.0 | 4.0 | 0.01 | 0.13 | 0.13 | 87 | 1012.9 |
| 20260508150024 | 39 | 213 | 1.0 | 2.0 | 0.01 | 0.13 | 0.13 | 86 | 1012.8 |
| 20260508145504 | 39 | 101 | 0.0 | 3.0 | 0.02 | 0.13 | 0.13 | 87 | 1012.7 |
| 20260508145003 | 39 | 103 | 1.0 | 4.0 | 0.02 | 0.13 | 0.13 | 90 | 1012.8 |
| 20260508144541 | 38 | 68 | 2.0 | 4.0 | 0.02 | 0.13 | 0.13 | 90 | 1012.7 |
| 20260508144008 | 37 | 109 | 1.0 | 4.0 | 0.02 | 0.12 | 0.12 | 88 | 1012.4 |
| 20260508143503 | 37 | 313 | 1.0 | 3.0 | 0.02 | 0.12 | 0.12 | 87 | 1012.7 |
| 20260508143013 | 37 | 246 | 1.0 | 4.0 | 0.03 | 0.12 | 0.12 | 88 | 1013.0 |
| 20260508142509 | 37 | 245 | 0.0 | 4.0 | 0.04 | 0.12 | 0.12 | 88 | 1013.0 |
| 20260508142003 | 37 | 248 | 2.0 | 4.0 | 0.05 | 0.12 | 0.12 | 88 | 1013.0 |
| 20260508141513 | 37 | 257 | 1.0 | 4.0 | 0.06 | 0.12 | 0.12 | 88 | 1012.8 |
| 20260508141006 | 37 | 240 | 1.0 | 5.0 | 0.07 | 0.12 | 0.12 | 88 | 1012.6 |
| 20260508140507 | 37 | 274 | 3.0 | 5.0 | 0.08 | 0.12 | 0.12 | 87 | 1012.6 |
| 20260508140010 | 37 | 260 | 1.0 | 4.0 | 0.10 | 0.12 | 0.12 | 87 | 1012.4 |
| 20260508135506 | 36 | 280 | 2.0 | 4.0 | 0.11 | 0.11 | 0.11 | 87 | 1012.4 |
| 20260508135008 | 36 | 248 | 2.0 | 3.0 | 0.11 | 0.11 | 0.11 | 87 | 1012.5 |
| 20260508134536 | 36 | 266 | 1.0 | 7.0 | 0.11 | 0.11 | 0.11 | 87 | 1012.7 |
| 20260508134003 | 36 | 283 | 3.0 | 7.0 | 0.10 | 0.10 | 0.10 | 87 | 1012.7 |
| 20260508133508 | 37 | 278 | 2.0 | 5.0 | 0.10 | 0.10 | 0.10 | 87 | 1012.8 |
| 20260508133031 | 36 | 338 | 2.0 | 5.0 | 0.09 | 0.09 | 0.09 | 86 | 1012.7 |
| 20260508132504 | 37 | 333 | 2.0 | 5.0 | 0.08 | 0.08 | 0.08 | 86 | 1012.6 |
| 20260508132003 | 37 | 322 | 3.0 | 8.0 | 0.07 | 0.07 | 0.07 | 85 | 1012.6 |
| 20260508131523 | 37 | 319 | 3.0 | 8.0 | 0.06 | 0.06 | 0.06 | 84 | 1012.6 |
| 20260508131006 | 38 | 312 | 2.0 | 7.0 | 0.05 | 0.05 | 0.05 | 83 | 1012.6 |
| 20260508130505 | 38 | 349 | 3.0 | 8.0 | 0.04 | 0.04 | 0.04 | 82 | 1012.5 |
| 20260508130021 | 39 | 323 | 4.0 | 8.0 | 0.02 | 0.02 | 0.02 | 80 | 1012.5 |
| 20260508125507 | 40 | 253 | 3.0 | 6.0 | 0.00 | 0.00 | 0.00 | 79 | 1012.3 |
| 20260508125004 | 41 | 25 | 2.0 | 8.0 | 0.00 | 0.00 | 0.00 | 77 | 1012.0 |
| 20260508124514 | 41 | 225 | 1.0 | 8.0 | 0.00 | 0.00 | 0.00 | 74 | 1011.9 |